Time;durP1;ratioP1;P1;durP2;ratioP2;P2;SDS_P1;SDS_P2;PMS_P1;PMS_P2;Temp;Humidity;BMP_temperature;BMP_pressure;BME280_temperature;BME280_humidity;BME280_pressure;Samples;Min_cycle;Max_cycle;Signal;HPM_P1;HPM_P2
2023/10/28 00:00:26;;;;;;;16.20;11.40;;;;;;;8.67;95.16;98498.33;108940;278;38839;-69
2023/10/28 00:03:20;;;;;;;14.10;11.60;;;;;;;8.63;94.97;98502.41;108970;278;38659;-69
2023/10/28 00:05:58;;;;;;;15.20;11.00;;;;;;;8.63;94.89;98505.71;108909;278;38968;-69
2023/10/28 00:08:34;;;;;;;12.60;10.30;;;;;;;8.61;94.79;98507.57;108918;278;40608;-66
2023/10/28 00:11:13;;;;;;;11.80;10.40;;;;;;;8.62;94.52;98508.19;108932;278;38295;-66
2023/10/28 00:13:50;;;;;;;13.50;11.00;;;;;;;8.59;94.32;98510.65;108986;278;39791;-70
2023/10/28 00:16:24;;;;;;;14.00;11.10;;;;;;;8.56;94.17;98512.40;108946;278;38177;-69
2023/10/28 00:18:59;;;;;;;11.70;10.00;;;;;;;8.53;94.37;98511.17;108960;278;38930;-66
2023/10/28 00:21:42;;;;;;;12.10;9.70;;;;;;;8.51;94.16;98519.27;108921;278;38475;-66
2023/10/28 00:24:25;;;;;;;10.80;9.30;;;;;;;8.50;94.19;98523.35;108942;278;38283;-66
2023/10/28 00:27:09;;;;;;;12.40;10.10;;;;;;;8.50;94.32;98527.65;108944;278;38743;-66
2023/10/28 00:29:53;;;;;;;12.00;9.60;;;;;;;8.48;94.00;98528.86;108937;278;39821;-67
2023/10/28 00:32:32;;;;;;;14.30;11.60;;;;;;;8.46;94.37;98533.66;108995;278;39673;-67
2023/10/28 00:35:15;;;;;;;14.30;11.90;;;;;;;8.46;94.41;98541.33;108940;278;38090;-66
2023/10/28 00:37:51;;;;;;;14.70;11.40;;;;;;;8.46;94.47;98548.09;108927;278;38447;-66
2023/10/28 00:40:30;;;;;;;15.20;12.40;;;;;;;8.47;94.43;98553.42;108925;278;38201;-66
2023/10/28 00:43:10;;;;;;;15.70;12.50;;;;;;;8.48;94.18;98560.30;108955;278;38318;-66
2023/10/28 00:45:46;;;;;;;15.30;13.30;;;;;;;8.46;93.96;98564.40;108940;278;37484;-66
2023/10/28 00:48:23;;;;;;;17.90;14.80;;;;;;;8.44;94.04;98566.11;108949;278;39747;-67
2023/10/28 00:51:02;;;;;;;17.40;14.80;;;;;;;8.38;93.65;98567.81;108976;278;39005;-68
2023/10/28 00:53:42;;;;;;;17.40;13.90;;;;;;;8.35;93.57;98568.70;108946;278;38387;-66
2023/10/28 00:56:23;;;;;;;16.40;13.90;;;;;;;8.31;93.13;98568.58;108936;278;39001;-66
2023/10/28 00:59:06;;;;;;;17.90;14.70;;;;;;;8.28;92.92;98573.41;108947;278;38488;-69
2023/10/28 01:01:49;;;;;;;18.10;15.30;;;;;;;8.25;93.13;98577.23;108968;274;39263;-69
2023/10/28 01:04:31;;;;;;;21.30;16.50;;;;;;;8.21;93.20;98581.62;108965;277;38169;-66
2023/10/28 01:07:13;;;;;;;20.20;16.20;;;;;;;8.17;92.94;98587.26;108957;277;38520;-66
2023/10/28 01:09:50;;;;;;;18.20;15.60;;;;;;;8.13;92.63;98587.16;109015;277;40018;-69
2023/10/28 01:12:26;;;;;;;15.80;13.90;;;;;;;8.10;92.79;98595.16;108975;277;40017;-70
2023/10/28 01:15:01;;;;;;;16.00;14.10;;;;;;;8.12;92.97;98592.40;108924;277;40590;-71
2023/10/28 01:17:35;;;;;;;16.50;14.40;;;;;;;8.12;92.74;98594.16;108965;277;39297;-69
2023/10/28 01:20:12;;;;;;;17.30;13.90;;;;;;;8.08;92.37;98594.56;108976;277;38616;-69
2023/10/28 01:22:48;;;;;;;16.70;13.30;;;;;;;8.01;91.71;98595.08;109006;277;38804;-70
2023/10/28 01:25:23;;;;;;;13.70;11.70;;;;;;;7.92;91.10;98595.06;108978;277;38784;-70
2023/10/28 01:27:58;;;;;;;11.30;10.20;;;;;;;7.85;91.37;98596.16;109011;277;39949;-70
2023/10/28 01:30:32;;;;;;;12.70;11.50;;;;;;;7.84;91.64;98601.44;108984;277;38615;-69
2023/10/28 01:33:08;;;;;;;12.90;11.50;;;;;;;7.84;91.76;98602.32;109004;277;38262;-66
2023/10/28 01:35:52;;;;;;;12.40;10.80;;;;;;;7.78;91.12;98602.45;108935;276;39342;-67
2023/10/28 01:38:32;;;;;;;10.70;9.60;;;;;;;7.73;91.16;98605.14;108911;277;38210;-65
2023/10/28 01:41:12;;;;;;;10.40;9.40;;;;;;;7.72;91.23;98606.94;108889;277;175190;-67
2023/10/28 01:43:51;;;;;;;10.80;9.80;;;;;;;7.69;91.02;98609.52;109028;277;38148;-67
2023/10/28 01:46:35;;;;;;;12.20;10.40;;;;;;;7.64;90.65;98606.02;108948;277;38410;-68
2023/10/28 01:49:12;;;;;;;10.60;9.60;;;;;;;7.56;90.56;98606.23;109019;277;38716;-69
2023/10/28 01:51:46;;;;;;;9.40;8.40;;;;;;;7.52;90.25;98606.30;109001;277;38260;-70
2023/10/28 01:54:28;;;;;;;8.80;7.90;;;;;;;7.49;90.61;98607.69;108994;277;38299;-66
2023/10/28 01:57:11;;;;;;;11.90;10.70;;;;;;;7.52;91.05;98604.08;108934;277;40095;-66
2023/10/28 01:59:45;;;;;;;8.80;7.90;;;;;;;7.49;90.34;98609.27;108954;277;39874;-70
2023/10/28 02:02:19;;;;;;;7.70;6.90;;;;;;;7.45;90.31;98616.19;108985;277;38178;-69
2023/10/28 02:04:53;;;;;;;7.40;6.30;;;;;;;7.42;90.35;98621.08;108940;277;38253;-69
2023/10/28 02:07:29;;;;;;;6.10;5.50;;;;;;;7.42;90.60;98620.54;109014;277;38367;-69
2023/10/28 02:10:04;;;;;;;10.10;8.10;;;;;;;7.44;90.47;98628.79;108979;277;38459;-69
2023/10/28 02:12:41;;;;;;;12.50;9.40;;;;;;;7.42;89.92;98626.59;109071;277;39623;-68
2023/10/28 02:15:22;;;;;;;12.50;9.40;;;;;;;7.39;89.80;98628.69;108963;277;39805;-67
2023/10/28 02:17:59;;;;;;;12.70;9.80;;;;;;;7.33;89.44;98631.42;108955;277;38205;-69
2023/10/28 02:20:33;;;;;;;7.90;7.00;;;;;;;7.30;89.51;98634.55;108979;277;39813;-68
2023/10/28 02:23:10;;;;;;;7.10;5.80;;;;;;;7.26;89.30;98636.46;108937;277;39768;-66
2023/10/28 02:25:50;;;;;;;7.90;6.30;;;;;;;7.23;89.39;98637.47;108963;277;38455;-67
2023/10/28 02:28:27;;;;;;;8.30;7.30;;;;;;;7.21;89.40;98641.27;108974;277;39342;-70
2023/10/28 02:31:01;;;;;;;5.00;4.50;;;;;;;7.17;89.38;98640.75;108999;277;38176;-69
2023/10/28 02:33:36;;;;;;;6.10;4.50;;;;;;;7.16;89.75;98641.13;108890;277;172459;-66
2023/10/28 02:36:12;;;;;;;4.70;4.20;;;;;;;7.17;89.65;98642.30;108948;277;38982;-66
2023/10/28 02:38:49;;;;;;;4.00;3.70;;;;;;;7.14;89.26;98640.02;109025;277;39261;-69
2023/10/28 02:41:22;;;;;;;4.20;3.80;;;;;;;7.11;89.11;98643.68;109010;277;38190;-69
2023/10/28 02:43:57;;;;;;;4.30;3.80;;;;;;;7.07;88.98;98651.65;108959;277;39621;-70
2023/10/28 02:46:31;;;;;;;3.50;3.20;;;;;;;7.03;89.07;98656.23;108968;277;39615;-70
2023/10/28 02:49:11;;;;;;;3.30;3.00;;;;;;;7.02;88.99;98663.20;108383;277;788482;-67
2023/10/28 02:51:49;;;;;;;4.10;2.90;;;;;;;6.99;88.78;98661.28;108916;277;39887;-66
2023/10/28 02:54:34;;;;;;;3.70;3.20;;;;;;;6.97;89.14;98665.69;108942;277;38834;-69
2023/10/28 02:57:14;;;;;;;3.60;3.30;;;;;;;6.93;88.58;98670.41;108921;277;38306;-69
2023/10/28 02:59:53;;;;;;;4.50;3.00;;;;;;;6.87;88.34;98676.45;108978;277;39706;-66
2023/10/28 03:02:31;;;;;;;3.00;2.80;;;;;;;6.82;88.72;98675.64;109040;277;39581;-69
2023/10/28 03:05:06;;;;;;;3.30;3.00;;;;;;;6.82;89.04;98681.17;108950;277;38417;-69
2023/10/28 03:07:42;;;;;;;3.20;2.90;;;;;;;6.81;89.02;98686.77;109027;277;39606;-65
2023/10/28 03:10:24;;;;;;;4.80;3.50;;;;;;;6.79;89.05;98695.05;108936;277;39152;-65
2023/10/28 03:13:07;;;;;;;3.90;3.30;;;;;;;6.76;89.22;98697.97;108981;277;39886;-69
2023/10/28 03:15:46;;;;;;;5.40;3.00;;;;;;;6.78;89.73;98700.80;109026;277;38505;-70
2023/10/28 03:18:20;;;;;;;3.90;3.10;;;;;;;6.80;89.25;98697.42;108860;277;172871;-69
2023/10/28 03:20:56;;;;;;;3.90;3.00;;;;;;;6.80;89.44;98700.38;109016;277;39235;-69
2023/10/28 03:23:36;;;;;;;3.50;2.70;;;;;;;6.81;89.73;98700.51;109013;277;39627;-66
2023/10/28 03:26:17;;;;;;;3.10;2.70;;;;;;;6.80;89.42;98702.25;108953;277;37977;-67
2023/10/28 03:28:55;;;;;;;4.60;2.90;;;;;;;6.77;88.92;98701.55;108997;277;39424;-69
2023/10/28 03:31:30;;;;;;;3.40;2.90;;;;;;;6.73;88.57;98700.34;108979;277;38781;-70
2023/10/28 03:34:05;;;;;;;3.10;2.70;;;;;;;6.70;88.70;98705.88;109012;277;38694;-69
2023/10/28 03:36:39;;;;;;;4.40;3.40;;;;;;;6.67;88.76;98706.88;108967;277;38473;-70
2023/10/28 03:39:19;;;;;;;4.00;3.10;;;;;;;6.63;89.13;98709.87;108978;277;39467;-66
2023/10/28 03:42:03;;;;;;;3.40;2.60;;;;;;;6.60;89.18;98711.91;108972;277;38436;-67
2023/10/28 03:44:43;;;;;;;3.90;3.30;;;;;;;6.57;89.28;98722.95;109019;277;39478;-70
2023/10/28 03:47:21;;;;;;;3.50;2.80;;;;;;;6.56;89.46;98724.91;109026;277;38335;-69
2023/10/28 03:50:02;;;;;;;5.40;3.10;;;;;;;6.55;89.58;98728.43;108965;277;39199;-66
2023/10/28 03:52:45;;;;;;;4.20;2.90;;;;;;;6.55;89.79;98731.05;108912;277;38320;-69
2023/10/28 03:55:34;;;;;;;3.30;2.90;;;;;;;6.55;89.88;98734.86;108939;277;38233;-70
2023/10/28 03:58:14;;;;;;;3.00;2.70;;;;;;;6.56;90.08;98738.95;109020;277;38237;-65
2023/10/28 04:00:55;;;;;;;3.10;2.40;;;;;;;6.58;90.24;98738.35;108987;277;38268;-69
2023/10/28 04:03:36;;;;;;;4.00;3.00;;;;;;;6.59;90.02;98740.17;108977;277;38351;-67
2023/10/28 04:06:20;;;;;;;3.00;2.70;;;;;;;6.59;89.84;98743.11;108961;277;38163;-66
2023/10/28 04:09:07;;;;;;;3.90;3.30;;;;;;;6.58;89.84;98744.59;108987;277;38322;-66
2023/10/28 04:11:44;;;;;;;3.20;2.90;;;;;;;6.54;89.84;98750.13;108938;277;39350;-66
2023/10/28 04:14:27;;;;;;;5.40;3.20;;;;;;;6.52;89.99;98744.50;108958;277;38741;-69
2023/10/28 04:17:09;;;;;;;5.20;3.10;;;;;;;6.54;89.90;98741.15;108942;277;39592;-67
2023/10/28 04:19:56;;;;;;;3.20;2.90;;;;;;;6.51;89.71;98740.21;108898;277;39376;-67
2023/10/28 04:22:40;;;;;;;3.50;3.10;;;;;;;6.49;89.78;98742.42;108974;277;39929;-66
2023/10/28 04:25:18;;;;;;;3.10;2.80;;;;;;;6.45;89.82;98743.28;109011;277;38213;-68
2023/10/28 04:27:58;;;;;;;3.20;2.60;;;;;;;6.42;90.07;98743.76;109034;277;39710;-69
2023/10/28 04:30:39;;;;;;;3.20;2.80;;;;;;;6.44;90.07;98747.16;108894;277;188816;-68
2023/10/28 04:33:24;;;;;;;3.80;3.10;;;;;;;6.43;90.13;98749.42;108948;277;38234;-68
2023/10/28 04:36:07;;;;;;;3.20;2.80;;;;;;;6.42;90.22;98750.71;108300;277;902836;-69
2023/10/28 04:38:55;;;;;;;4.00;3.10;;;;;;;6.42;90.27;98760.42;108966;277;38461;-72
2023/10/28 04:41:39;;;;;;;4.60;2.50;;;;;;;6.41;90.20;98756.31;108979;277;38272;-70
2023/10/28 04:44:15;;;;;;;3.10;2.80;;;;;;;6.40;90.52;98759.77;109024;277;39755;-72
2023/10/28 04:47:03;;;;;;;3.30;3.00;;;;;;;6.42;90.32;98761.60;109009;276;38462;-71
2023/10/28 04:49:42;;;;;;;3.20;2.80;;;;;;;6.43;90.19;98767.29;108965;277;38443;-69
2023/10/28 04:52:24;;;;;;;4.10;3.30;;;;;;;6.42;90.45;98771.29;108969;274;38293;-70
2023/10/28 04:55:04;;;;;;;3.10;2.60;;;;;;;6.43;90.41;98779.93;109042;276;38348;-71
2023/10/28 04:57:40;;;;;;;3.90;2.90;;;;;;;6.43;90.37;98787.71;109043;277;39064;-69
2023/10/28 05:00:24;;;;;;;2.80;2.60;;;;;;;6.44;90.41;98791.64;108945;277;39558;-69
2023/10/28 05:03:04;;;;;;;3.00;2.40;;;;;;;6.46;90.80;98796.58;108929;277;39408;-68
2023/10/28 05:05:41;;;;;;;4.00;2.90;;;;;;;6.48;90.65;98797.02;108973;277;39281;-70
2023/10/28 05:08:20;;;;;;;4.90;3.10;;;;;;;6.47;90.40;98801.04;108997;277;38321;-68
2023/10/28 05:10:58;;;;;;;2.40;2.20;;;;;;;6.46;90.70;98806.45;108933;277;39699;-70
2023/10/28 05:13:36;;;;;;;3.30;2.40;;;;;;;6.45;90.63;98812.20;108997;277;38748;-69
2023/10/28 05:16:14;;;;;;;3.90;3.00;;;;;;;6.45;90.53;98813.92;108917;277;39159;-69
2023/10/28 05:18:51;;;;;;;4.40;3.10;;;;;;;6.46;90.89;98817.04;108994;277;38773;-70
2023/10/28 05:21:27;;;;;;;4.20;3.00;;;;;;;6.48;90.96;98819.52;108983;277;39390;-71
2023/10/28 05:24:15;;;;;;;4.40;2.70;;;;;;;6.47;90.69;98823.73;109046;277;39384;-70
2023/10/28 05:26:57;;;;;;;3.90;3.00;;;;;;;6.47;91.05;98830.48;108941;277;39493;-69
2023/10/28 05:29:33;;;;;;;4.80;2.80;;;;;;;6.49;91.07;98835.42;108921;277;39244;-70
2023/10/28 05:32:13;;;;;;;4.20;3.20;;;;;;;6.50;90.94;98833.31;109002;277;38719;-68
2023/10/28 05:35:02;;;;;;;4.80;3.50;;;;;;;6.51;91.12;98837.75;108967;277;39302;-69
2023/10/28 05:37:47;;;;;;;5.30;3.10;;;;;;;6.52;91.16;98842.60;108982;277;38306;-69
2023/10/28 05:40:32;;;;;;;5.60;3.40;;;;;;;6.50;90.80;98844.02;108950;277;39586;-69
2023/10/28 05:43:06;;;;;;;5.10;3.00;;;;;;;6.52;91.10;98847.62;108993;277;38189;-67
2023/10/28 05:45:41;;;;;;;5.40;3.30;;;;;;;6.54;91.26;98853.55;108916;277;38467;-70
2023/10/28 05:48:15;;;;;;;5.30;2.90;;;;;;;6.59;91.34;98853.52;108993;277;39307;-68
2023/10/28 05:50:59;;;;;;;6.10;3.90;;;;;;;6.57;91.11;98854.27;108950;277;39326;-67
2023/10/28 05:53:34;;;;;;;5.30;3.50;;;;;;;6.56;91.23;98854.70;108983;277;38147;-71
2023/10/28 05:56:16;;;;;;;3.50;2.80;;;;;;;6.56;91.32;98856.60;108958;277;38623;-70
2023/10/28 05:58:51;;;;;;;5.10;3.60;;;;;;;6.56;91.33;98856.92;108942;277;38211;-67
2023/10/28 06:01:30;;;;;;;4.80;3.60;;;;;;;6.58;91.24;98862.23;108960;277;40019;-66
2023/10/28 06:04:10;;;;;;;4.30;3.30;;;;;;;6.58;91.53;98868.27;108950;277;39584;-70
2023/10/28 06:06:49;;;;;;;4.40;3.60;;;;;;;6.57;91.59;98867.13;108962;277;39754;-70
2023/10/28 06:09:23;;;;;;;4.80;3.60;;;;;;;6.59;91.81;98867.52;109013;277;38255;-70
2023/10/28 06:11:58;;;;;;;4.90;3.90;;;;;;;6.62;91.66;98872.95;108987;277;39457;-70
2023/10/28 06:14:32;;;;;;;5.70;3.80;;;;;;;6.63;91.70;98874.95;108992;277;38612;-70
2023/10/28 06:17:10;;;;;;;5.40;3.60;;;;;;;6.67;91.90;98878.07;109004;277;38193;-69
2023/10/28 06:19:47;;;;;;;4.30;3.70;;;;;;;6.69;92.05;98886.30;108345;277;903787;-69
2023/10/28 06:22:25;;;;;;;5.50;3.50;;;;;;;6.74;92.38;98891.80;109006;277;38466;-68
2023/10/28 06:25:00;;;;;;;4.60;3.60;;;;;;;6.82;92.64;98896.30;108958;277;39613;-66
2023/10/28 06:27:37;;;;;;;4.40;3.70;;;;;;;6.89;92.67;98900.80;108995;277;39294;-70
2023/10/28 06:30:17;;;;;;;4.10;3.60;;;;;;;6.93;92.59;98904.10;108927;277;38236;-69
2023/10/28 06:32:53;;;;;;;5.20;3.60;;;;;;;6.95;92.58;98907.13;108980;277;39369;-68
2023/10/28 06:35:34;;;;;;;3.30;3.00;;;;;;;6.98;92.49;98906.11;108940;277;38408;-67
2023/10/28 06:38:12;;;;;;;5.70;3.80;;;;;;;7.02;92.42;98911.45;108960;277;38502;-68
2023/10/28 06:40:51;;;;;;;5.10;3.80;;;;;;;7.07;92.61;98910.05;108941;277;39806;-66
2023/10/28 06:43:27;;;;;;;5.30;4.20;;;;;;;7.11;92.74;98912.94;108908;277;175565;-66
2023/10/28 06:46:03;;;;;;;6.70;4.10;;;;;;;7.14;92.46;98915.06;108992;277;39745;-67
2023/10/28 06:48:44;;;;;;;4.80;3.90;;;;;;;7.21;92.65;98916.30;108968;277;39722;-67
2023/10/28 06:51:22;;;;;;;6.30;4.30;;;;;;;7.31;92.87;98921.39;108928;277;38683;-66
2023/10/28 06:54:03;;;;;;;5.40;4.00;;;;;;;7.41;92.57;98927.86;108933;277;38251;-69
2023/10/28 06:56:36;;;;;;;;;;;;;;;7.46;92.41;98930.70;108983;277;37950;-69
2023/10/28 06:59:12;;;;;;;5.20;4.10;;;;;;;7.51;92.52;98933.60;108980;277;39804;-67
2023/10/28 07:01:53;;;;;;;6.40;4.90;;;;;;;7.62;92.92;98931.52;108933;277;38346;-67
2023/10/28 07:04:30;;;;;;;5.80;3.80;;;;;;;7.76;93.29;98942.41;108980;278;38551;-67
2023/10/28 07:07:12;;;;;;;4.90;3.80;;;;;;;7.92;93.31;98944.58;108969;278;38494;-66
2023/10/28 07:09:51;;;;;;;6.00;4.40;;;;;;;8.09;93.11;98943.40;108975;277;39516;-70
2023/10/28 07:12:25;;;;;;;5.30;4.20;;;;;;;8.26;92.92;98942.36;108982;277;39536;-70
2023/10/28 07:14:59;;;;;;;6.00;4.30;;;;;;;8.43;92.55;98939.73;108889;277;175110;-70
2023/10/28 07:17:34;;;;;;;4.10;3.70;;;;;;;8.60;92.23;98941.86;109077;278;38243;-69
2023/10/28 07:20:12;;;;;;;5.60;3.70;;;;;;;8.77;91.66;98941.63;109086;277;38563;-70
2023/10/28 07:22:46;;;;;;;3.80;3.20;;;;;;;8.89;90.87;98938.01;109123;278;38139;-70
2023/10/28 07:25:20;;;;;;;4.80;3.40;;;;;;;8.97;89.69;98943.50;108923;278;172305;-69
2023/10/28 07:27:54;;;;;;;4.00;2.90;;;;;;;9.07;88.53;98949.71;109114;277;38245;-66
2023/10/28 07:30:32;;;;;;;3.40;3.10;;;;;;;9.18;88.05;98949.14;109072;277;39156;-66
2023/10/28 07:33:11;;;;;;;;;;;;;;;9.33;86.45;98954.77;109134;278;38163;-66
2023/10/28 07:35:54;;;;;;;4.30;2.70;;;;;;;9.24;85.33;98960.43;109057;278;38456;-66
2023/10/28 07:38:31;;;;;;;4.40;3.00;;;;;;;9.20;84.82;98963.27;109079;277;40457;-70
2023/10/28 07:41:09;;;;;;;2.80;2.50;;;;;;;9.17;84.27;98967.46;109108;277;38738;-71
2023/10/28 07:43:48;;;;;;;2.90;2.30;;;;;;;9.13;83.98;98969.08;109088;277;38296;-67
2023/10/28 07:46:25;;;;;;;2.60;2.30;;;;;;;9.10;82.88;98971.51;109039;277;38115;-67
2023/10/28 07:49:05;;;;;;;3.00;2.70;;;;;;;9.07;82.92;98980.88;109050;277;38251;-67
2023/10/28 07:51:47;;;;;;;2.40;2.20;;;;;;;9.03;82.64;98981.99;109066;277;38219;-67
2023/10/28 07:54:24;;;;;;;4.20;2.40;;;;;;;9.04;83.02;98985.73;109057;277;38291;-70
2023/10/28 07:57:02;;;;;;;3.30;3.00;;;;;;;9.10;83.54;98984.05;108969;276;38618;-69
2023/10/28 07:59:38;;;;;;;4.40;2.70;;;;;;;9.16;83.82;98979.88;109002;277;38325;-70
2023/10/28 08:02:15;;;;;;;2.90;2.60;;;;;;;9.20;82.54;98988.50;108927;277;38938;-70
2023/10/28 08:04:54;;;;;;;3.00;2.60;;;;;;;9.24;82.83;98988.81;108923;277;38232;-69
2023/10/28 08:07:31;;;;;;;2.70;2.50;;;;;;;9.34;83.11;98994.76;108984;277;38322;-70
2023/10/28 08:10:10;;;;;;;3.60;2.70;;;;;;;9.43;83.05;99003.61;108960;277;38190;-71
2023/10/28 08:12:45;;;;;;;4.20;2.90;;;;;;;9.53;83.30;99007.91;108904;277;175054;-68
2023/10/28 08:15:29;;;;;;;2.60;2.30;;;;;;;9.62;83.46;99011.61;108982;277;39464;-67
2023/10/28 08:18:10;;;;;;;3.90;2.60;;;;;;;9.70;82.98;99015.33;108951;277;38164;-67
2023/10/28 08:20:50;;;;;;;4.50;2.60;;;;;;;9.74;81.97;99022.11;108947;277;39388;-66
2023/10/28 08:23:28;;;;;;;3.10;2.00;;;;;;;9.76;82.07;99025.63;108984;277;38372;-70
2023/10/28 08:26:05;;;;;;;2.70;2.20;;;;;;;9.82;81.98;99029.65;108929;277;38471;-69
2023/10/28 08:28:44;;;;;;;2.40;2.20;;;;;;;9.84;81.13;99035.63;109022;277;39321;-65
2023/10/28 08:31:23;;;;;;;3.00;2.30;;;;;;;9.84;80.81;99034.27;108941;277;38229;-66
2023/10/28 08:34:01;;;;;;;3.70;2.40;;;;;;;9.81;80.84;99038.95;109080;277;38494;-70
2023/10/28 08:36:39;;;;;;;2.90;2.20;;;;;;;9.79;80.92;99036.93;109020;277;38452;-69
2023/10/28 08:39:17;;;;;;;2.60;2.40;;;;;;;9.73;79.74;99041.10;109034;277;38901;-70
2023/10/28 08:41:56;;;;;;;3.70;2.40;;;;;;;9.70;80.26;99041.48;108988;277;39804;-70
2023/10/28 08:44:31;;;;;;;2.40;1.90;;;;;;;9.66;80.11;99044.52;109004;277;39922;-67
2023/10/28 08:47:14;;;;;;;2.40;2.10;;;;;;;9.64;79.82;99045.83;108969;274;38441;-67
2023/10/28 08:49:50;;;;;;;3.20;2.40;;;;;;;9.67;79.95;99051.05;108944;277;38593;-69
2023/10/28 08:52:27;;;;;;;2.90;2.50;;;;;;;9.67;79.36;99055.05;108986;277;39299;-67
2023/10/28 08:55:03;;;;;;;3.30;2.60;;;;;;;9.70;79.88;99058.71;108949;277;39925;-66
2023/10/28 08:57:46;;;;;;;2.80;2.60;;;;;;;9.73;80.02;99065.16;108993;277;38399;-70
2023/10/28 09:00:30;;;;;;;3.10;2.60;;;;;;;9.70;79.43;99065.51;108826;277;175065;-70
2023/10/28 09:03:04;;;;;;;2.60;2.30;;;;;;;9.68;79.56;99070.12;109017;277;39244;-70
2023/10/28 09:05:38;;;;;;;3.10;2.70;;;;;;;9.67;79.73;99075.24;108937;277;38289;-69
2023/10/28 09:08:15;;;;;;;4.20;2.10;;;;;;;9.67;79.71;99078.56;106672;277;3013661;-67
2023/10/28 09:11:09;;;;;;;2.50;2.30;;;;;;;9.69;79.65;99075.45;108901;277;38283;-65
2023/10/28 09:13:48;;;;;;;3.00;2.20;;;;;;;9.72;79.38;99074.63;108943;277;39665;-71
2023/10/28 09:16:25;;;;;;;2.50;2.20;;;;;;;9.75;79.83;99072.38;108995;277;38496;-70
2023/10/28 09:19:00;;;;;;;2.50;2.30;;;;;;;9.79;79.84;99077.34;108858;277;175014;-66
2023/10/28 09:21:36;;;;;;;2.50;2.30;;;;;;;9.85;80.55;99082.62;109014;277;38188;-66
2023/10/28 09:24:13;;;;;;;3.40;2.40;;;;;;;9.88;79.76;99085.91;108956;277;38161;-70
2023/10/28 09:26:53;;;;;;;3.30;2.00;;;;;;;9.90;79.29;99088.12;109021;277;38994;-69
2023/10/28 09:29:30;;;;;;;2.60;2.30;;;;;;;9.89;78.91;99090.91;108950;277;38468;-69
2023/10/28 09:32:21;;;;;;;2.40;2.20;;;;;;;9.94;79.14;99088.04;108954;277;38374;-69
2023/10/28 09:34:58;;;;;;;3.20;2.30;;;;;;;10.03;79.00;99095.34;108963;277;38483;-66
2023/10/28 09:37:36;;;;;;;2.50;2.30;;;;;;;10.09;78.72;99096.76;108957;277;38694;-67
2023/10/28 09:40:14;;;;;;;3.40;2.50;;;;;;;10.12;78.05;99097.47;108925;277;38188;-66
2023/10/28 09:42:51;;;;;;;4.40;2.30;;;;;;;10.13;77.73;99099.84;108939;277;39430;-68
2023/10/28 09:45:26;;;;;;;2.90;2.30;;;;;;;10.16;78.16;99098.45;108875;277;174968;-70
2023/10/28 09:48:04;;;;;;;3.00;2.40;;;;;;;10.23;78.03;99099.27;109023;277;39974;-65
2023/10/28 09:50:48;;;;;;;2.90;2.50;;;;;;;10.35;78.21;99097.06;108966;277;39620;-67
2023/10/28 09:53:33;;;;;;;3.50;2.70;;;;;;;10.47;77.51;99096.73;108970;277;38164;-67
2023/10/28 09:56:12;;;;;;;2.80;2.20;;;;;;;10.55;77.57;99099.04;108985;277;38173;-68
2023/10/28 09:58:52;;;;;;;2.60;2.10;;;;;;;10.65;76.90;99104.73;108859;277;172630;-69
2023/10/28 10:01:28;;;;;;;;;;;;;;;10.73;76.93;99109.83;108964;277;39478;-69
2023/10/28 10:04:09;;;;;;;2.40;1.90;;;;;;;10.80;77.32;99111.70;108991;277;39245;-66
2023/10/28 10:06:43;;;;;;;2.30;1.90;;;;;;;10.89;76.59;99112.95;108965;270;38488;-67
2023/10/28 10:09:22;;;;;;;1.90;1.70;;;;;;;10.93;76.08;99112.16;109012;277;39692;-67
2023/10/28 10:12:05;;;;;;;2.00;1.70;;;;;;;10.95;75.76;99116.21;108932;277;38152;-66
2023/10/28 10:14:46;;;;;;;2.30;2.00;;;;;;;11.02;75.83;99121.72;108986;277;38561;-66
2023/10/28 10:17:33;;;;;;;2.60;1.80;;;;;;;11.07;75.61;99121.25;108997;277;38461;-68
2023/10/28 10:20:15;;;;;;;4.00;2.00;;;;;;;11.17;76.07;99117.73;108833;277;175269;-69
2023/10/28 10:22:54;;;;;;;;;;;;;;;11.24;75.75;99117.08;109011;277;39599;-67
2023/10/28 10:25:39;;;;;;;4.50;2.40;;;;;;;11.29;75.47;99120.26;108943;277;38145;-66
2023/10/28 10:28:24;;;;;;;3.40;2.90;;;;;;;11.32;74.89;99119.88;108907;277;38167;-66
2023/10/28 10:31:12;;;;;;;2.60;2.20;;;;;;;11.40;75.03;99119.63;108975;277;38361;-66
2023/10/28 10:33:48;;;;;;;3.00;2.20;;;;;;;11.43;74.61;99117.36;108990;277;38299;-69
2023/10/28 10:36:27;;;;;;;2.60;2.10;;;;;;;11.48;74.64;99124.20;108953;277;38214;-72
2023/10/28 10:39:15;;;;;;;4.30;2.60;;;;;;;11.52;74.99;99127.23;108960;277;38472;-70
2023/10/28 10:41:54;;;;;;;2.30;2.00;;;;;;;11.52;74.15;99133.70;108948;277;38474;-70
2023/10/28 10:44:38;;;;;;;2.40;2.00;;;;;;;11.47;73.14;99140.50;108967;277;39344;-67
2023/10/28 10:47:20;;;;;;;2.40;2.20;;;;;;;11.36;73.02;99136.80;108978;277;40220;-66
2023/10/28 10:49:59;;;;;;;2.10;1.80;;;;;;;11.26;72.50;99132.66;108345;277;789210;-65
2023/10/28 10:52:36;;;;;;;2.90;2.00;;;;;;;11.19;72.89;99132.39;108992;277;39647;-69
2023/10/28 10:55:12;;;;;;;5.10;2.50;;;;;;;11.11;72.54;99127.27;109012;278;38883;-69
2023/10/28 10:57:53;;;;;;;2.70;2.30;;;;;;;11.04;72.83;99127.02;109153;277;38754;-69
2023/10/28 11:00:32;;;;;;;2.80;2.30;;;;;;;10.99;72.98;99132.41;109030;277;39427;-68
2023/10/28 11:03:10;;;;;;;2.30;2.00;;;;;;;10.92;72.67;99138.44;109110;278;38044;-66
2023/10/28 11:05:51;;;;;;;3.10;2.20;;;;;;;10.85;72.40;99134.10;109015;277;38967;-75
2023/10/28 11:08:29;;;;;;;4.50;2.20;;;;;;;10.77;72.54;99134.92;109098;277;38335;-69
2023/10/28 11:11:04;;;;;;;2.50;2.20;;;;;;;10.74;73.87;99134.19;109109;278;38257;-68
2023/10/28 11:13:38;;;;;;;3.70;2.40;;;;;;;10.75;73.67;99139.06;109028;278;38324;-69
2023/10/28 11:16:24;;;;;;;4.10;2.50;;;;;;;10.73;73.57;99139.52;109117;277;38326;-69
2023/10/28 11:18:59;;;;;;;3.90;2.30;;;;;;;10.73;73.99;99138.65;108992;278;38384;-77
2023/10/28 11:21:34;;;;;;;3.70;2.50;;;;;;;10.75;74.39;99137.99;109070;278;38481;-70
2023/10/28 11:24:10;;;;;;;3.10;2.50;;;;;;;10.78;74.68;99137.45;109157;278;39460;-66
2023/10/28 11:26:51;;;;;;;2.50;2.20;;;;;;;10.80;74.49;99138.06;109066;277;38361;-66
2023/10/28 11:29:25;;;;;;;3.20;2.50;;;;;;;10.81;74.02;99138.00;109072;278;38260;-66
2023/10/28 11:32:09;;;;;;;2.40;2.20;;;;;;;10.78;73.69;99140.95;109092;278;38742;-66
2023/10/28 11:34:48;;;;;;;3.60;2.90;;;;;;;10.75;74.22;99141.82;109047;277;38752;-67
2023/10/28 11:37:23;;;;;;;2.60;2.30;;;;;;;10.78;74.66;99137.11;109008;278;175094;-67
2023/10/28 11:40:10;;;;;;;5.20;2.40;;;;;;;10.79;74.67;99141.40;109111;277;38198;-66
2023/10/28 11:42:49;;;;;;;2.70;2.20;;;;;;;10.82;74.05;99141.76;109091;277;40158;-68
2023/10/28 11:45:24;;;;;;;;;;;;;;;10.80;73.96;99143.62;109106;278;39682;-66
2023/10/28 11:48:00;;;;;;;3.20;2.30;;;;;;;10.73;74.41;99147.73;109153;278;38483;-66
2023/10/28 11:50:39;;;;;;;4.70;2.60;;;;;;;10.75;75.06;99149.48;109088;278;38358;-66
2023/10/28 11:53:17;;;;;;;3.10;2.70;;;;;;;10.77;75.13;99143.79;109104;278;39419;-69
2023/10/28 11:55:51;;;;;;;2.70;2.40;;;;;;;10.81;74.82;99144.64;109021;277;40273;-69
2023/10/28 11:58:28;;;;;;;3.20;2.60;;;;;;;10.87;75.44;99147.77;108975;277;38164;-69
2023/10/28 12:01:04;;;;;;;3.10;2.60;;;;;;;10.93;75.16;99151.06;108978;277;38149;-69
2023/10/28 12:03:38;;;;;;;2.70;2.30;;;;;;;10.99;74.86;99148.47;109053;277;38611;-70
2023/10/28 12:06:12;;;;;;;3.10;2.60;;;;;;;11.09;74.92;99152.02;109044;277;38245;-70
2023/10/28 12:08:49;;;;;;;4.00;2.90;;;;;;;11.17;75.07;99150.15;109029;277;39065;-72
2023/10/28 12:11:24;;;;;;;4.00;2.90;;;;;;;11.22;74.79;99152.46;108863;277;174949;-70
2023/10/28 12:14:01;;;;;;;3.30;2.60;;;;;;;11.26;74.16;99156.41;109041;277;39694;-70
2023/10/28 12:16:41;;;;;;;3.80;2.90;;;;;;;11.30;74.01;99164.23;108974;277;38734;-70
2023/10/28 12:19:15;;;;;;;3.70;3.10;;;;;;;11.32;73.70;99170.19;108985;277;40015;-69
2023/10/28 12:21:49;;;;;;;3.30;2.80;;;;;;;11.30;73.61;99173.96;108962;277;38170;-72
2023/10/28 12:24:34;;;;;;;3.50;3.10;;;;;;;11.26;73.66;99167.80;109027;277;39654;-67
2023/10/28 12:27:18;;;;;;;3.70;3.30;;;;;;;11.21;73.96;99168.76;108944;277;38287;-67
2023/10/28 12:29:52;;;;;;;3.40;3.10;;;;;;;11.15;73.26;99171.04;108958;277;38185;-71
2023/10/28 12:32:26;;;;;;;4.60;3.10;;;;;;;11.02;72.69;99170.59;109063;277;38598;-68